createdAt,value
2023-02-01T00:07:23.686Z,57.186
2023-02-01T00:22:25.956Z,57.495
2023-02-01T00:37:28.177Z,58.024
2023-02-01T00:52:30.499Z,58.016
2023-02-01T01:07:32.814Z,58.737
2023-02-01T01:22:35.033Z,58.01
2023-02-01T01:37:37.257Z,57.78
2023-02-01T01:52:39.475Z,58.235
2023-02-01T02:07:41.651Z,58.511
2023-02-01T02:22:44.020Z,58.289
2023-02-01T02:37:46.298Z,58.609
2023-02-01T02:52:48.491Z,59.061
2023-02-01T03:07:50.713Z,59.364
2023-02-01T03:22:52.971Z,59.978
2023-02-01T03:37:55.263Z,60.417
2023-02-01T03:52:57.595Z,61.658
2023-02-01T04:07:59.864Z,60.531
2023-02-01T04:23:02.159Z,61.015
2023-02-01T04:38:04.391Z,61.536
2023-02-01T04:53:06.656Z,60.815
2023-02-01T05:08:08.934Z,60.204
2023-02-01T05:23:11.204Z,60.165
2023-02-01T05:38:13.586Z,60.315
2023-02-01T05:53:15.923Z,59.752
2023-02-01T06:08:18.221Z,60.328
2023-02-01T06:23:20.702Z,61.205
2023-02-01T06:38:22.983Z,61.378
2023-02-01T06:53:25.231Z,61.144
2023-02-01T07:08:27.436Z,61.382
2023-02-01T07:23:29.731Z,62.167
2023-02-01T07:38:32.261Z,64.157
2023-02-01T07:53:34.528Z,62.074
2023-02-01T08:08:36.795Z,62.212
2023-02-01T08:23:39.209Z,62.832
2023-02-01T08:38:41.437Z,62.168
2023-02-01T08:53:43.783Z,62.996
2023-02-01T09:08:46.181Z,62.704
2023-02-01T09:23:48.374Z,62.113
2023-02-01T09:38:53.185Z,62.001
2023-02-01T09:53:55.885Z,61.501
2023-02-01T10:08:58.092Z,61.984
2023-02-01T10:24:03.570Z,61.979
2023-02-01T10:39:11.362Z,62.215
2023-02-01T10:54:13.644Z,63.011
2023-02-01T11:09:15.715Z,62.992
2023-02-01T11:24:17.948Z,63.63
2023-02-01T11:39:20.220Z,62.969
2023-02-01T11:54:22.540Z,62.206
2023-02-01T12:09:24.782Z,63.882
2023-02-01T12:24:27.031Z,63.769
2023-02-01T12:39:29.406Z,64.137
2023-02-01T12:54:31.700Z,64.527
2023-02-01T13:09:33.918Z,62.738
2023-02-01T13:24:36.163Z,63.575
2023-02-01T13:39:38.669Z,64.697
2023-02-01T13:54:40.997Z,65.856
2023-02-01T14:09:43.338Z,64.981
2023-02-01T14:24:45.664Z,65.481
2023-02-01T14:39:47.954Z,64.036
2023-02-01T14:54:50.196Z,65.114
2023-02-01T15:09:52.436Z,65.775
2023-02-01T15:24:54.689Z,65.356
2023-02-01T15:39:56.947Z,63.83
2023-02-01T15:54:59.261Z,64.511
2023-02-01T16:10:01.566Z,64.704
2023-02-01T16:25:03.887Z,64.314
2023-02-01T16:40:06.346Z,67.792
2023-02-01T16:55:08.738Z,65.541
2023-02-01T17:10:12.479Z,64.526
2023-02-01T17:25:16.009Z,63.791
2023-02-01T17:40:18.266Z,65.044
2023-02-01T17:55:20.615Z,64.99
2023-02-01T18:10:22.919Z,64.819
2023-02-01T18:25:25.695Z,65.525
2023-02-01T18:40:28.069Z,66.716
2023-02-01T18:55:30.518Z,65.747
2023-02-01T19:10:32.785Z,63.977
2023-02-01T19:25:35.001Z,63.237
2023-02-01T19:40:37.440Z,67.564
2023-02-01T19:55:39.694Z,65.985
2023-02-01T20:10:41.087Z,65.745
2023-02-01T20:25:44.422Z,67.604
2023-02-01T20:40:46.739Z,65.942
2023-02-01T20:55:48.956Z,65.73
2023-02-01T21:10:51.299Z,63.998
2023-02-01T21:25:53.467Z,64.583
2023-02-01T21:40:55.851Z,63.752
2023-02-01T21:55:58.075Z,62.787
2023-02-01T22:11:00.276Z,64.614
2023-02-01T22:26:02.654Z,63.452
2023-02-01T22:41:05.015Z,62.315
2023-02-01T22:56:07.364Z,63.286
2023-02-01T23:11:09.704Z,65.878
2023-02-01T23:26:12.039Z,63.48
2023-02-01T23:41:14.258Z,64.008
2023-02-01T23:56:16.509Z,65.572
